Time;durP1;ratioP1;P1;durP2;ratioP2;P2;SDS_P1;SDS_P2;PMS_P1;PMS_P2;Temp;Humidity;BMP_temperature;BMP_pressure;BME280_temperature;BME280_humidity;BME280_pressure;Samples;Min_cycle;Max_cycle;Signal;HPM_P1;HPM_P2
2023/09/17 00:01:52;;;;;;;;;;;;;;;19.85;85.51;99934.06;4994916;28;19914;-72
2023/09/17 00:04:17;;;;;;;;;;;;;;;19.82;85.34;99923.50;4993313;28;19968;-72
2023/09/17 00:06:43;;;;;;;;;;;;;;;19.77;86.00;99922.63;4994424;28;20004;-72
2023/09/17 00:09:08;;;;;;;;;;;;;;;19.80;86.34;99934.44;4994393;28;20004;-72
2023/09/17 00:11:33;;;;;;;;;;;;;;;19.91;85.89;99924.81;4993906;28;20462;-72
2023/09/17 00:13:58;;;;;;;;;;;;;;;19.83;86.50;99930.81;4993338;28;19914;-72
2023/09/17 00:16:30;;;;;;;;;;;;;;;19.82;86.70;99923.50;4993946;28;19917;-72
2023/09/17 00:18:56;;;;;;;;;;;;;;;19.90;86.15;99919.53;4994756;28;19910;-72
2023/09/17 00:21:21;;;;;;;;;;;;;;;19.75;87.03;99919.38;4994447;28;20441;-72
2023/09/17 00:23:47;;;;;;;;;;;;;;;19.63;88.16;99911.13;4994389;28;19914;-72
2023/09/17 00:26:12;;;;;;;;;;;;;;;19.75;87.60;99910.84;4992740;28;20253;-72
2023/09/17 00:28:37;;;;;;;;;;;;;;;19.60;88.54;99906.22;4994161;28;19981;-72
2023/09/17 00:31:03;;;;;;;;;;;;;;;19.82;87.46;99915.00;4993459;28;19937;-72
2023/09/17 00:33:28;;;;;;;;;;;;;;;19.73;87.39;99913.25;4994372;28;19910;-72
2023/09/17 00:35:53;;;;;;;;;;;;;;;19.97;86.30;99902.63;4994402;28;19965;-72
2023/09/17 00:38:19;;;;;;;;;;;;;;;20.01;86.06;99914.00;4994030;28;19957;-72
2023/09/17 00:40:45;;;;;;;;;;;;;;;20.14;85.29;99911.69;4992887;28;19992;-72
2023/09/17 00:43:11;;;;;;;;;;;;;;;20.12;85.21;99909.28;4993832;28;19999;-72
2023/09/17 00:45:38;;;;;;;;;;;;;;;20.15;85.00;99904.81;4994179;28;19949;-72
2023/09/17 00:48:04;;;;;;;;;;;;;;;19.76;86.50;99915.31;4993153;28;20372;-72
2023/09/17 00:50:31;;;;;;;;;;;;;;;19.87;86.32;99908.94;4993935;28;19917;-72
2023/09/17 00:52:57;;;;;;;;;;;;;;;19.94;85.56;99913.94;4994034;28;19909;-72
2023/09/17 00:55:22;;;;;;;;;;;;;;;19.81;85.90;99907.69;4992771;28;19931;-72
2023/09/17 00:57:47;;;;;;;;;;;;;;;19.63;86.57;99899.75;4976191;28;19914;-72
2023/09/17 01:00:14;;;;;;;;;;;;;;;19.58;87.04;99905.78;4993817;28;19910;-72
2023/09/17 01:02:40;;;;;;;;;;;;;;;19.62;87.04;99901.81;4992906;28;19914;-72
2023/09/17 01:05:06;;;;;;;;;;;;;;;19.73;86.68;99899.06;4976205;28;20305;-72
2023/09/17 01:07:32;;;;;;;;;;;;;;;19.85;86.03;99902.84;4993712;28;20056;-72
2023/09/17 01:09:57;;;;;;;;;;;;;;;19.83;85.92;99903.22;4992810;28;20022;-72
2023/09/17 01:12:23;;;;;;;;;;;;;;;19.90;85.05;99903.31;4993631;28;20003;-72
2023/09/17 01:14:48;;;;;;;;;;;;;;;19.83;85.13;99908.09;4993692;28;19909;-72
2023/09/17 01:17:14;;;;;;;;;;;;;;;19.90;84.78;99908.16;4993580;28;19910;-72
2023/09/17 01:19:42;;;;;;;;;;;;;;;19.89;84.90;99906.53;4992452;28;19972;-72
2023/09/17 01:22:14;;;;;;;;;;;;;;;19.78;85.71;99912.09;4993439;28;20346;-72
2023/09/17 01:24:48;;;;;;;;;;;;;;;19.91;85.65;99915.50;4993043;28;20375;-72
2023/09/17 01:27:15;;;;;;;;;;;;;;;19.90;85.54;99911.84;4993164;28;20408;-72
2023/09/17 01:29:41;;;;;;;;;;;;;;;19.89;85.80;99913.03;4993326;28;20379;-72
2023/09/17 01:32:07;;;;;;;;;;;;;;;19.91;86.11;99907.00;4993283;28;19941;-72
2023/09/17 01:34:39;;;;;;;;;;;;;;;19.97;85.72;99908.28;4991974;28;20419;-72
2023/09/17 01:37:07;;;;;;;;;;;;;;;19.89;85.34;99913.03;4992194;28;19964;-72
2023/09/17 01:39:35;;;;;;;;;;;;;;;19.84;85.52;99910.53;4992715;28;19913;-72
2023/09/17 01:42:02;;;;;;;;;;;;;;;19.63;86.68;99900.59;4993052;28;20008;-72
2023/09/17 01:44:29;;;;;;;;;;;;;;;19.67;86.84;99899.81;4975563;28;19910;-72
2023/09/17 01:46:55;;;;;;;;;;;;;;;19.77;86.43;99899.94;4993071;28;19913;-72
2023/09/17 01:49:20;;;;;;;;;;;;;;;19.84;86.00;99899.19;4992960;28;20432;-72
2023/09/17 01:51:46;;;;;;;;;;;;;;;19.79;86.41;99905.22;4991898;28;20486;-72
2023/09/17 01:54:12;;;;;;;;;;;;;;;19.85;86.22;99905.69;4992144;28;19913;-72
2023/09/17 01:56:37;;;;;;;;;;;;;;;19.85;86.20;99898.00;4992891;28;19945;-72
2023/09/17 01:59:04;;;;;;;;;;;;;;;19.80;86.40;99909.69;4992933;28;19909;-72
2023/09/17 02:01:30;;;;;;;;;;;;;;;19.43;88.08;99907.63;4992665;28;19910;-72
2023/09/17 02:03:55;;;;;;;;;;;;;;;19.14;89.94;99905.22;4992898;28;19916;-72
2023/09/17 02:06:20;;;;;;;;;;;;;;;19.00;90.88;99899.34;4992390;28;20382;-72
2023/09/17 02:08:45;;;;;;;;;;;;;;;19.10;90.61;99897.84;4991050;28;19986;-72
2023/09/17 02:11:11;;;;;;;;;;;;;;;19.20;90.29;99897.19;4992595;28;19918;-72
2023/09/17 02:13:36;;;;;;;;;;;;;;;19.39;89.23;99896.22;4992659;28;19956;-72
2023/09/17 02:16:02;;;;;;;;;;;;;;;19.50;88.99;99891.50;4992686;28;20378;-72
2023/09/17 02:18:27;;;;;;;;;;;;;;;19.48;88.48;99893.91;4992509;28;19960;-72
2023/09/17 02:20:53;;;;;;;;;;;;;;;19.55;88.19;99898.03;4992455;28;19909;-72
2023/09/17 02:23:18;;;;;;;;;;;;;;;19.47;89.08;99900.78;4992014;28;19913;-72
2023/09/17 02:25:43;;;;;;;;;;;;;;;19.46;89.33;99912.50;4990389;28;19924;-72
2023/09/17 02:28:09;;;;;;;;;;;;;;;19.49;89.29;99895.56;4975014;28;20379;-72
2023/09/17 02:30:34;;;;;;;;;;;;;;;19.39;89.88;99901.09;4992353;28;19920;-72
2023/09/17 02:32:59;;;;;;;;;;;;;;;19.44;89.77;99897.91;4992267;28;19909;-72
2023/09/17 02:35:25;;;;;;;;;;;;;;;19.44;89.55;99898.75;4992260;28;19910;-72
2023/09/17 02:37:50;;;;;;;;;;;;;;;19.54;89.26;99891.56;4991947;28;19971;-72
2023/09/17 02:40:16;;;;;;;;;;;;;;;19.57;89.11;99887.94;4992063;28;19913;-72
2023/09/17 02:42:43;;;;;;;;;;;;;;;19.57;89.01;99885.09;4991261;28;19922;-72
2023/09/17 02:45:09;;;;;;;;;;;;;;;19.64;88.82;99890.03;4974785;28;19932;-72
2023/09/17 02:47:34;;;;;;;;;;;;;;;19.75;88.50;99895.88;4992129;28;19913;-72
2023/09/17 02:49:59;;;;;;;;;;;;;;;19.84;87.64;99890.66;4992054;28;19921;-72
2023/09/17 02:52:26;;;;;;;;;;;;;;;19.82;87.43;99880.94;4992127;28;19916;-73
2023/09/17 02:54:52;;;;;;;;;;;;;;;19.83;87.57;99880.53;4991870;28;19981;-72
2023/09/17 02:57:17;;;;;;;;;;;;;;;19.77;87.77;99880.06;4991045;28;19914;-72
2023/09/17 02:59:42;;;;;;;;;;;;;;;19.77;88.18;99882.91;4992102;28;19964;-72
2023/09/17 03:02:08;;;;;;;;;;;;;;;19.65;88.45;99880.31;4992195;28;19953;-72
2023/09/17 03:04:33;;;;;;;;;;;;;;;19.69;88.37;99886.03;4992108;28;19972;-72
2023/09/17 03:06:58;;;;;;;;;;;;;;;19.66;88.98;99881.97;4992148;28;19917;-72
2023/09/17 03:09:24;;;;;;;;;;;;;;;19.59;89.27;99876.22;4991425;28;19968;-72
2023/09/17 03:11:50;;;;;;;;;;;;;;;19.54;89.63;99876.53;4992055;28;19913;-72
2023/09/17 03:14:16;;;;;;;;;;;;;;;19.52;89.83;99882.63;4991124;28;19960;-72
2023/09/17 03:16:41;;;;;;;;;;;;;;;19.56;89.82;99877.00;4992010;28;20322;-72
2023/09/17 03:19:06;;;;;;;;;;;;;;;19.60;89.70;99877.84;4994693;28;20310;-72
2023/09/17 03:21:34;;;;;;;;;;;;;;;19.60;89.93;99881.47;4995453;28;19910;-72
2023/09/17 03:23:59;;;;;;;;;;;;;;;19.62;89.34;99889.63;4995371;28;19917;-72
2023/09/17 03:26:24;;;;;;;;;;;;;;;19.61;89.24;99888.00;4977983;28;19917;-72
2023/09/17 03:28:50;;;;;;;;;;;;;;;19.50;89.88;99890.72;4994510;28;19913;-72
2023/09/17 03:31:15;;;;;;;;;;;;;;;19.49;90.26;99887.03;4992844;28;19913;-72
2023/09/17 03:33:40;;;;;;;;;;;;;;;19.49;90.33;99884.19;4989214;28;19924;-72
2023/09/17 03:36:06;;;;;;;;;;;;;;;19.50;90.19;99885.84;4982671;28;20000;-72
2023/09/17 03:38:33;;;;;;;;;;;;;;;19.45;90.85;99888.19;4974418;28;20373;-72
2023/09/17 03:40:59;;;;;;;;;;;;;;;19.53;90.30;99889.94;4992234;28;19910;-72
2023/09/17 03:43:27;;;;;;;;;;;;;;;19.63;89.70;99897.75;4975761;28;19910;-72
2023/09/17 03:45:52;;;;;;;;;;;;;;;19.52;90.55;99895.97;4989841;28;19914;-72
2023/09/17 03:48:17;;;;;;;;;;;;;;;19.58;91.02;99897.28;4993870;28;19910;-72
2023/09/17 03:50:43;;;;;;;;;;;;;;;19.68;90.64;99896.59;4993929;28;20382;-72
2023/09/17 03:53:08;;;;;;;;;;;;;;;19.64;90.74;99898.56;4993496;28;19937;-72
2023/09/17 03:55:34;;;;;;;;;;;;;;;19.58;91.09;99891.59;4975669;28;19913;-72
2023/09/17 03:57:59;;;;;;;;;;;;;;;19.50;91.66;99891.50;4984429;28;19910;-70
2023/09/17 04:00:25;;;;;;;;;;;;;;;19.48;92.40;99893.09;5010418;28;19929;-72
2023/09/17 04:02:52;;;;;;;;;;;;;;;19.59;91.72;99896.06;4976851;28;19921;-72
2023/09/17 04:05:17;;;;;;;;;;;;;;;19.64;91.21;99895.72;4978018;28;19914;-72
2023/09/17 04:07:44;;;;;;;;;;;;;;;19.60;91.00;99890.00;4975328;28;20419;-72
2023/09/17 04:10:10;;;;;;;;;;;;;;;19.61;91.18;99893.66;4994614;28;19969;-72
2023/09/17 04:12:36;;;;;;;;;;;;;;;19.66;90.71;99893.31;4992448;28;20410;-72
2023/09/17 04:15:18;;;;;;;;;;;;;;;19.64;90.26;99901.38;4994452;28;19918;-71
2023/09/17 04:17:44;;;;;;;;;;;;;;;19.60;91.08;99897.72;5001272;28;19920;-70
2023/09/17 04:20:19;;;;;;;;;;;;;;;19.65;90.69;99891.69;5000870;28;19952;-71
2023/09/17 04:22:46;;;;;;;;;;;;;;;19.75;89.59;99890.97;4994660;28;19909;-70
2023/09/17 04:25:13;;;;;;;;;;;;;;;19.76;89.31;99892.63;4983502;28;19918;-71
2023/09/17 04:27:42;;;;;;;;;;;;;;;19.68;89.54;99895.78;4988845;28;20395;-71
2023/09/17 04:30:07;;;;;;;;;;;;;;;19.56;91.39;99894.81;4994139;28;19917;-70
2023/09/17 04:32:37;;;;;;;;;;;;;;;19.66;91.50;99896.16;4992895;28;20276;-70
2023/09/17 04:35:02;;;;;;;;;;;;;;;19.66;92.35;99895.34;4990417;28;20379;-71
2023/09/17 04:37:28;;;;;;;;;;;;;;;19.69;92.87;99898.22;4995171;28;19964;-72
2023/09/17 04:39:53;;;;;;;;;;;;;;;19.72;92.63;99894.59;5011098;28;19916;-71
2023/09/17 04:42:18;;;;;;;;;;;;;;;19.43;93.20;99902.78;4995490;28;20004;-71
2023/09/17 04:44:44;;;;;;;;;;;;;;;19.43;93.73;99908.44;4985868;28;19914;-71
2023/09/17 04:47:09;;;;;;;;;;;;;;;19.49;93.73;99906.91;4980898;28;19920;-71
2023/09/17 04:49:35;;;;;;;;;;;;;;;19.54;93.38;99899.22;4981194;28;20354;-72
2023/09/17 04:55:04;;;;;;;;;;;;;;;19.09;96.51;99905.56;5418804;23;20475;-85
2023/09/17 04:57:30;;;;;;;;;;;;;;;19.33;95.60;99921.25;5033048;28;20012;-84
2023/09/17 04:59:55;;;;;;;;;;;;;;;19.12;97.50;99924.63;5035895;28;19936;-85
2023/09/17 05:02:21;;;;;;;;;;;;;;;19.09;99.37;99919.72;5035443;28;19995;-85
2023/09/17 05:04:47;;;;;;;;;;;;;;;19.33;97.46;99924.09;5035376;28;20403;-84
2023/09/17 05:07:12;;;;;;;;;;;;;;;19.48;96.50;99927.13;5035511;28;19952;-85
2023/09/17 05:09:37;;;;;;;;;;;;;;;19.67;94.37;99923.34;5035391;28;20377;-85
2023/09/17 05:12:04;;;;;;;;;;;;;;;19.78;93.10;99918.59;5035418;28;20364;-84
2023/09/17 05:14:29;;;;;;;;;;;;;;;19.80;92.03;99920.25;5035333;28;19909;-87
2023/09/17 05:16:54;;;;;;;;;;;;;;;19.94;91.16;99928.13;5035649;28;19908;-83
2023/09/17 05:19:23;;;;;;;;;;;;;;;19.93;90.78;99924.47;5028945;28;19920;-84
2023/09/17 05:21:49;;;;;;;;;;;;;;;19.82;92.39;99924.31;5034403;28;19928;-85
2023/09/17 05:24:15;;;;;;;;;;;;;;;19.92;92.29;99929.31;5035154;28;19917;-85
2023/09/17 05:26:40;;;;;;;;;;;;;;;20.08;91.88;99930.31;5015152;28;19922;-86
2023/09/17 05:29:07;;;;;;;;;;;;;;;19.79;94.20;99925.09;5013777;28;19974;-85
2023/09/17 05:31:33;;;;;;;;;;;;;;;19.75;94.45;99930.72;5015332;28;19967;-83
2023/09/17 05:33:58;;;;;;;;;;;;;;;19.71;95.08;99938.38;5038411;28;19912;-87
2023/09/17 05:36:23;;;;;;;;;;;;;;;19.74;95.50;99931.91;5016845;28;19956;-86
2023/09/17 05:38:48;;;;;;;;;;;;;;;19.89;94.15;99940.59;5028278;28;19914;-87
2023/09/17 05:41:15;;;;;;;;;;;;;;;20.04;94.10;99942.44;5024397;28;19932;-89
2023/09/17 05:43:40;;;;;;;;;;;;;;;20.13;93.83;99936.44;5018260;28;20381;-89
2023/09/17 05:46:09;;;;;;;;;;;;;;;20.15;93.99;99944.56;5015673;28;19915;-89
2023/09/17 05:48:34;;;;;;;;;;;;;;;20.22;nan;99941.81;5015271;28;19913;-88
2023/09/17 05:50:59;;;;;;;;;;;;;;;20.29;92.62;99936.22;5015118;28;19920;-88
2023/09/17 05:53:25;;;;;;;;;;;;;;;20.46;91.77;99945.28;5033108;28;19913;-88
2023/09/17 05:55:50;;;;;;;;;;;;;;;20.59;90.34;99945.81;5032181;28;19917;-87
2023/09/17 05:58:15;;;;;;;;;;;;;;;20.61;90.07;99949.88;5015986;28;20359;-87
2023/09/17 06:00:41;;;;;;;;;;;;;;;20.47;89.89;99944.09;5016016;28;20364;-87
2023/09/17 06:03:06;;;;;;;;;;;;;;;20.32;91.65;99948.78;5015999;28;20003;-89
2023/09/17 06:05:32;;;;;;;;;;;;;;;20.48;90.84;99942.88;5015343;28;20008;-86
2023/09/17 06:07:57;;;;;;;;;;;;;;;20.55;89.97;99954.31;5014954;28;19916;-87
2023/09/17 06:10:22;;;;;;;;;;;;;;;20.64;89.78;99956.03;5014744;28;19917;-86
2023/09/17 06:12:47;;;;;;;;;;;;;;;20.86;88.76;99957.03;5015286;28;19971;-87
2023/09/17 06:15:13;;;;;;;;;;;;;;;20.90;87.97;99958.69;5017289;28;20419;-87
2023/09/17 06:17:38;;;;;;;;;;;;;;;20.99;86.90;99961.19;5030066;28;19948;-88
2023/09/17 06:20:04;;;;;;;;;;;;;;;21.06;86.71;99953.91;5033558;28;19917;-88
2023/09/17 06:22:30;;;;;;;;;;;;;;;21.06;87.17;99960.44;5027681;28;19920;-88
2023/09/17 06:24:55;;;;;;;;;;;;;;;20.99;87.07;99960.38;5014363;28;19947;-87
2023/09/17 06:27:21;;;;;;;;;;;;;;;21.10;87.01;99961.25;5020967;28;19967;-87
2023/09/17 06:29:46;;;;;;;;;;;;;;;21.13;87.11;99959.66;5014367;28;19936;-86
2023/09/17 06:32:11;;;;;;;;;;;;;;;21.15;86.87;99965.75;5014054;28;19920;-87
2023/09/17 06:34:37;;;;;;;;;;;;;;;21.11;87.41;99957.19;5012742;28;19921;-90
2023/09/17 06:37:05;;;;;;;;;;;;;;;21.09;87.38;99961.69;5008826;28;19923;-87
2023/09/17 06:39:30;;;;;;;;;;;;;;;20.88;88.54;99961.13;5014152;28;19984;-87
2023/09/17 06:41:56;;;;;;;;;;;;;;;21.18;87.38;99953.63;5031328;28;19913;-87
2023/09/17 06:44:23;;;;;;;;;;;;;;;21.18;87.45;99945.09;5013755;28;20286;-87
2023/09/17 06:46:48;;;;;;;;;;;;;;;21.33;86.77;99945.97;5012185;28;19952;-88
2023/09/17 06:49:13;;;;;;;;;;;;;;;21.27;86.80;99937.00;5044079;28;20526;-87
2023/09/17 06:51:39;;;;;;;;;;;;;;;21.24;87.20;99942.69;5016296;28;19921;-86
2023/09/17 06:54:06;;;;;;;;;;;;;;;21.22;87.67;99953.63;5014486;28;19919;-86
2023/09/17 06:56:31;;;;;;;;;;;;;;;21.52;85.95;99953.38;5032084;28;19924;-87
2023/09/17 06:59:18;;;;;;;;;;;;;;;21.73;84.50;99955.56;5018187;28;19913;-89
2023/09/17 07:01:45;;;;;;;;;;;;;;;21.73;84.83;99946.19;5018201;28;19963;-89
2023/09/17 07:04:16;;;;;;;;;;;;;;;21.76;84.42;99948.25;5019045;28;19909;-86
2023/09/17 07:06:42;;;;;;;;;;;;;;;21.72;83.54;99942.56;5023630;28;19959;-87
2023/09/17 07:09:08;;;;;;;;;;;;;;;21.91;82.97;99946.28;5037150;28;19917;-86
2023/09/17 07:11:37;;;;;;;;;;;;;;;22.03;81.87;99947.94;5037412;28;19917;-87
2023/09/17 07:14:09;;;;;;;;;;;;;;;22.07;82.75;99950.78;5021404;28;20443;-86
2023/09/17 07:16:44;;;;;;;;;;;;;;;21.95;81.46;99952.78;5017516;28;20408;-87
2023/09/17 07:19:12;;;;;;;;;;;;;;;21.94;81.18;99945.47;5020619;28;19913;-87
2023/09/17 07:21:41;;;;;;;;;;;;;;;22.21;79.64;99944.31;5056762;28;20285;-86
2023/09/17 07:24:06;;;;;;;;;;;;;;;22.35;79.36;99952.09;5018496;28;20292;-84
2023/09/17 07:26:34;;;;;;;;;;;;;;;22.39;78.62;99955.75;5022427;28;19909;-85
2023/09/17 07:28:59;;;;;;;;;;;;;;;22.37;79.77;99956.13;5024561;28;19913;-85
2023/09/17 07:31:24;;;;;;;;;;;;;;;22.40;78.45;99960.22;5025172;28;19916;-84
2023/09/17 07:33:53;;;;;;;;;;;;;;;22.36;78.64;99954.50;5026031;28;19963;-85
2023/09/17 07:36:18;;;;;;;;;;;;;;;22.42;78.92;99954.94;5022979;28;19909;-84
2023/09/17 07:38:46;;;;;;;;;;;;;;;22.56;77.56;99963.56;5037932;28;19922;-84
2023/09/17 07:41:11;;;;;;;;;;;;;;;22.59;76.97;99964.75;5021436;28;19913;-84
2023/09/17 07:43:42;;;;;;;;;;;;;;;22.48;78.51;99969.59;5018726;28;19938;-84
2023/09/17 07:46:11;;;;;;;;;;;;;;;22.80;75.35;99966.00;5018453;28;19913;-85
2023/09/17 07:48:36;;;;;;;;;;;;;;;22.95;75.77;99961.09;5026602;28;19935;-84
2023/09/17 07:51:02;;;;;;;;;;;;;;;22.88;74.17;99961.09;5037077;28;19909;-84
2023/09/17 07:53:27;;;;;;;;;;;;;;;22.97;73.16;99961.50;5054870;28;19915;-83
2023/09/17 07:55:53;;;;;;;;;;;;;;;22.89;73.27;99959.88;5036691;28;19920;-84
2023/09/17 07:58:18;;;;;;;;;;;;;;;22.71;73.46;99963.56;5037056;28;19913;-84
2023/09/17 08:00:45;;;;;;;;;;;;;;;22.74;73.04;99959.88;5035593;28;20334;-84
2023/09/17 08:03:15;;;;;;;;;;;;;;;22.79;72.04;99967.22;5014071;28;19917;-84
2023/09/17 08:05:43;;;;;;;;;;;;;;;22.93;72.24;99955.81;5011880;28;19920;-83
2023/09/17 08:08:08;;;;;;;;;;;;;;;23.08;72.04;99965.16;4997383;28;19917;-83
2023/09/17 08:10:36;;;;;;;;;;;;;;;23.14;71.34;99957.81;4997254;28;19913;-83
2023/09/17 08:13:01;;;;;;;;;;;;;;;23.15;71.30;99961.50;5014983;28;19910;-83
2023/09/17 08:15:27;;;;;;;;;;;;;;;23.19;70.61;99955.78;5013439;28;19909;-83
2023/09/17 08:17:53;;;;;;;;;;;;;;;23.58;70.33;99957.75;5034248;28;19913;-83
2023/09/17 08:20:19;;;;;;;;;;;;;;;23.78;68.22;99957.28;5027894;28;20447;-83
2023/09/17 08:22:45;;;;;;;;;;;;;;;23.82;68.71;99943.78;5016847;28;19909;-83
2023/09/17 08:25:11;;;;;;;;;;;;;;;23.69;68.95;99935.69;5016614;28;19915;-84
2023/09/17 08:27:37;;;;;;;;;;;;;;;23.62;68.02;99941.41;5049723;28;20384;-83
2023/09/17 08:30:11;;;;;;;;;;;;;;;23.98;68.37;99934.75;5016522;28;19962;-83
2023/09/17 08:32:36;;;;;;;;;;;;;;;24.25;68.55;99940.72;5017950;28;20381;-83
2023/09/17 08:35:03;;;;;;;;;;;;;;;24.33;66.72;99934.94;5016533;28;19999;-83
2023/09/17 08:37:29;;;;;;;;;;;;;;;24.49;65.75;99943.81;5024705;28;19913;-83
2023/09/17 08:39:54;;;;;;;;;;;;;;;24.63;65.63;99933.53;5018451;28;19923;-84
2023/09/17 08:42:21;;;;;;;;;;;;;;;24.81;63.47;99942.78;5017560;28;19917;-90
2023/09/17 08:44:48;;;;;;;;;;;;;;;24.64;62.37;99933.09;5036679;28;20003;-91
2023/09/17 08:47:22;;;;;;;;;;;;;;;24.42;63.68;99934.47;5037704;28;19991;-90
2023/09/17 08:49:49;;;;;;;;;;;;;;;24.25;64.31;99932.16;5037710;28;19912;-89
2023/09/17 08:52:17;;;;;;;;;;;;;;;24.06;64.83;99938.41;5039920;28;19917;-91
2023/09/17 08:54:43;;;;;;;;;;;;;;;24.01;65.32;99927.34;5035438;28;19940;-91
2023/09/17 08:57:10;;;;;;;;;;;;;;;23.96;65.55;99931.50;5037052;28;20388;-90
2023/09/17 08:59:41;;;;;;;;;;;;;;;23.97;66.43;99939.63;5017207;28;19913;-90
2023/09/17 09:02:12;;;;;;;;;;;;;;;23.96;66.99;99931.50;5017265;28;19909;-90
2023/09/17 09:04:38;;;;;;;;;;;;;;;23.88;66.64;99935.59;5017267;28;20381;-90
2023/09/17 09:07:05;;;;;;;;;;;;;;;23.88;65.47;99941.31;5017150;28;19913;-91
2023/09/17 09:09:31;;;;;;;;;;;;;;;23.94;64.78;99934.75;5017526;28;20431;-90
2023/09/17 09:11:57;;;;;;;;;;;;;;;24.11;65.67;99932.22;5017161;28;19912;-90
2023/09/17 09:14:22;;;;;;;;;;;;;;;24.34;64.79;99934.53;5013559;28;19909;-90
2023/09/17 09:16:49;;;;;;;;;;;;;;;24.27;63.12;99930.94;5023885;28;19908;-90
2023/09/17 09:19:14;;;;;;;;;;;;;;;24.28;63.47;99930.50;5032762;28;20403;-90
2023/09/17 09:21:39;;;;;;;;;;;;;;;24.10;63.47;99924.88;5016554;28;20003;-91
2023/09/17 09:24:05;;;;;;;;;;;;;;;24.15;64.75;99924.47;5034247;28;19909;-90
2023/09/17 09:26:34;;;;;;;;;;;;;;;24.32;62.98;99921.91;5016756;28;19917;-90
2023/09/17 09:29:01;;;;;;;;;;;;;;;24.10;63.28;99925.72;5016751;28;20012;-90
2023/09/17 09:31:29;;;;;;;;;;;;;;;24.08;63.74;99928.19;5016789;28;20362;-90
2023/09/17 09:33:56;;;;;;;;;;;;;;;24.27;62.64;99925.22;5016827;28;19913;-89
2023/09/17 09:36:22;;;;;;;;;;;;;;;24.28;62.87;99924.78;5016313;28;19924;-88
2023/09/17 09:38:49;;;;;;;;;;;;;;;24.44;62.56;99914.88;5016633;28;19999;-89
2023/09/17 09:41:14;;;;;;;;;;;;;;;24.37;62.53;99912.88;5016417;28;19912;-89
2023/09/17 09:43:42;;;;;;;;;;;;;;;24.61;63.05;99908.19;5016592;28;19916;-89
2023/09/17 09:46:08;;;;;;;;;;;;;;;24.87;60.60;99913.75;5029272;28;19920;-90
2023/09/17 09:48:37;;;;;;;;;;;;;;;25.17;60.21;99903.63;5036189;28;20388;-88
2023/09/17 09:51:03;;;;;;;;;;;;;;;25.20;58.94;99903.59;5036145;28;19909;-88
2023/09/17 09:53:28;;;;;;;;;;;;;;;25.60;58.71;99906.00;5069638;28;19961;-89
2023/09/17 09:55:55;;;;;;;;;;;;;;;25.51;57.37;99899.97;5036189;28;19921;-91
2023/09/17 09:58:20;;;;;;;;;;;;;;;25.45;59.20;99904.50;5036175;28;19991;-91
2023/09/17 10:00:45;;;;;;;;;;;;;;;25.81;57.37;99898.34;5035915;28;20009;-90
2023/09/17 10:03:17;;;;;;;;;;;;;;;25.68;57.23;99885.84;5036111;28;20353;-90
2023/09/17 10:05:44;;;;;;;;;;;;;;;25.56;57.98;99879.47;5036325;28;19909;-92
2023/09/17 10:08:10;;;;;;;;;;;;;;;25.78;58.57;99885.72;5036000;28;20023;-90
2023/09/17 10:10:37;;;;;;;;;;;;;;;25.81;57.93;99883.25;4999454;28;20055;-91
2023/09/17 10:13:04;;;;;;;;;;;;;;;25.95;58.05;99880.16;5000174;28;19909;-93
2023/09/17 10:15:30;;;;;;;;;;;;;;;26.18;56.12;99884.34;5014509;28;19909;-91
2023/09/17 10:17:56;;;;;;;;;;;;;;;25.90;56.94;99887.19;5015247;28;20278;-91
2023/09/17 10:20:22;;;;;;;;;;;;;;;25.74;56.69;99884.16;5033151;28;19909;-91
2023/09/17 10:22:48;;;;;;;;;;;;;;;25.44;56.57;99880.00;5015222;28;20024;-92
2023/09/17 10:25:14;;;;;;;;;;;;;;;25.56;57.32;99884.38;5015262;28;19909;-91
2023/09/17 10:27:42;;;;;;;;;;;;;;;25.49;57.91;99882.44;5015152;28;20060;-91
2023/09/17 10:30:08;;;;;;;;;;;;;;;25.43;57.89;99889.81;5013893;28;19936;-92
2023/09/17 10:32:34;;;;;;;;;;;;;;;25.68;56.19;99883.00;5033305;28;19909;-94
2023/09/17 10:35:00;;;;;;;;;;;;;;;25.77;55.52;99886.16;5015714;28;19909;-91
2023/09/17 10:37:26;;;;;;;;;;;;;;;25.43;55.44;99875.50;5015902;28;20309;-91
2023/09/17 10:39:52;;;;;;;;;;;;;;;25.33;55.05;99880.13;5016506;28;19955;-92
2023/09/17 10:42:19;;;;;;;;;;;;;;;25.47;55.17;99879.16;5016130;28;19909;-92
2023/09/17 10:44:45;;;;;;;;;;;;;;;25.27;54.72;99876.09;5015765;28;20349;-92
2023/09/17 10:47:13;;;;;;;;;;;;;;;25.84;54.72;99879.50;5016104;28;19916;-95
2023/09/17 10:49:40;;;;;;;;;;;;;;;26.15;54.09;99871.69;5016404;28;20312;-93
2023/09/17 10:52:07;;;;;;;;;;;;;;;25.95;53.54;99867.91;5015969;28;19913;-94
2023/09/17 10:54:33;;;;;;;;;;;;;;;25.43;53.91;99866.91;5033498;28;19909;-92
2023/09/17 10:57:01;;;;;;;;;;;;;;;25.36;54.58;99860.06;5023587;28;20065;-92
2023/09/17 10:59:29;;;;;;;;;;;;;;;25.72;54.76;99855.13;5019713;28;20285;-92
2023/09/17 11:01:58;;;;;;;;;;;;;;;26.00;53.37;99855.94;5016239;28;19936;-92
2023/09/17 11:07:20;;;;;;;;;;;;;;;26.51;52.88;99856.00;5027219;28;19909;-93
2023/09/17 11:09:46;;;;;;;;;;;;;;;26.20;52.11;99841.75;5010693;28;19917;-92
2023/09/17 11:12:12;;;;;;;;;;;;;;;26.37;52.06;99842.69;5008720;28;19917;-92
2023/09/17 11:14:40;;;;;;;;;;;;;;;26.40;51.96;99844.69;5001975;28;20317;-92
2023/09/17 11:17:09;;;;;;;;;;;;;;;26.87;51.74;99841.03;5015463;28;19980;-93
2023/09/17 11:19:36;;;;;;;;;;;;;;;26.62;50.73;99841.44;5015870;28;19912;-93
2023/09/17 11:22:02;;;;;;;;;;;;;;;26.12;51.94;99828.72;5015379;28;20012;-92
2023/09/17 11:24:32;;;;;;;;;;;;;;;26.38;51.30;99829.97;5015139;28;19941;-92
2023/09/17 11:27:01;;;;;;;;;;;;;;;26.81;50.17;99821.88;4996063;28;19913;-93
2023/09/17 11:29:50;;;;;;;;;;;;;;;27.05;50.05;99823.47;4995565;28;19917;-92
2023/09/17 11:32:24;;;;;;;;;;;;;;;27.28;48.65;99827.50;4992611;28;19909;-92
2023/09/17 11:34:57;;;;;;;;;;;;;;;27.54;47.63;99815.50;5008169;28;20304;-92
2023/09/17 11:37:26;;;;;;;;;;;;;;;27.78;46.39;99813.34;5015475;28;19909;-92
2023/09/17 11:39:51;;;;;;;;;;;;;;;27.79;46.02;99803.44;5008977;28;19932;-92
2023/09/17 11:42:16;;;;;;;;;;;;;;;28.15;45.64;99799.72;4999293;28;19909;-92
2023/09/17 11:44:46;;;;;;;;;;;;;;;28.34;45.28;99808.69;5015928;28;19964;-93
2023/09/17 11:47:23;;;;;;;;;;;;;;;28.44;44.97;99801.06;5016283;28;19910;-93
2023/09/17 11:49:52;;;;;;;;;;;;;;;28.55;44.16;99801.59;4999854;28;19917;-92
2023/09/17 11:52:17;;;;;;;;;;;;;;;27.52;45.16;99795.00;5015986;28;19909;-92
2023/09/17 11:55:13;;;;;;;;;;;;;;;27.18;45.97;99794.09;5000832;28;19916;-92
2023/09/17 11:57:38;;;;;;;;;;;;;;;27.38;45.62;99782.59;5018801;28;19913;-92
2023/09/17 12:00:49;;;;;;;;;;;;;;;27.01;46.20;99778.88;5025787;28;19921;-93
2023/09/17 12:02:53;;;;;;;;;;;;;;;27.15;46.23;99780.59;5036488;28;19912;-93
2023/09/17 12:05:24;;;;;;;;;;;;;;;27.32;46.14;99772.88;5042042;28;19912;-93
2023/09/17 12:08:10;;;;;;;;;;;;;;;27.52;45.69;99769.97;5035871;28;19913;-93
2023/09/17 12:11:00;;;;;;;;;;;;;;;28.07;45.72;99769.50;5001107;28;19913;-93
2023/09/17 12:13:30;;;;;;;;;;;;;;;28.25;45.55;99771.97;5018015;28;19945;-93
2023/09/17 12:16:04;;;;;;;;;;;;;;;28.53;45.29;99774.53;5018581;28;19912;-92
2023/09/17 12:18:33;;;;;;;;;;;;;;;28.52;45.11;99767.97;5019219;28;19909;-92
2023/09/17 12:21:07;;;;;;;;;;;;;;;27.96;45.88;99766.91;5018883;28;19909;-92
2023/09/17 12:29:42;;;;;;;;;;;;;;;28.88;43.21;99760.44;5055373;28;19912;-92
2023/09/17 12:32:12;;;;;;;;;;;;;;;29.07;42.79;99757.84;5031146;28;20012;-91
2023/09/17 12:34:38;;;;;;;;;;;;;;;29.19;42.44;99751.31;5005621;28;19921;-90
2023/09/17 12:37:06;;;;;;;;;;;;;;;29.31;43.49;99758.38;5015384;28;19910;-90
2023/09/17 12:39:34;;;;;;;;;;;;;;;29.36;42.54;99754.91;4998161;28;19959;-91
2023/09/17 12:42:00;;;;;;;;;;;;;;;28.96;40.90;99753.22;5050154;28;19912;-92
2023/09/17 12:44:57;;;;;;;;;;;;;;;29.04;39.80;99750.13;5035817;28;19963;-92
2023/09/17 12:47:47;;;;;;;;;;;;;;;;;;;;;
2023/09/17 12:50:32;;;;;;;;;;;;;;;29.12;40.01;99745.78;5054505;28;19912;-89
2023/09/17 12:53:01;;;;;;;;;;;;;;;28.77;40.30;99743.44;5037649;28;19909;-90
2023/09/17 12:55:53;;;;;;;;;;;;;;;28.52;40.75;99739.19;5037432;28;19917;-89
2023/09/17 12:58:20;;;;;;;;;;;;;;;28.83;40.49;99732.22;5037148;28;19913;-90
2023/09/17 13:00:46;;;;;;;;;;;;;;;28.84;40.10;99733.81;5034766;28;20394;-91